Portada
METAR-TAF:

METAR-TAF

Aeroports :

Sable Island, Nova Escòcia, Canadà

latitud: 43-56N, longitud: 060-01W, altitud: 4 m

Observació

L'informe es va fer fa 55 minuts, a les 13:00 UTC
Vent 15 kt del Sud-Oest
Temperatura 9°C
Humitat 87%
Pressió 1014 hPa
Cel cobert a una alçada de 300 ft

METAR: CWSA 221300Z AUTO 22015KT OVC003 09/07 A2995 RMK WX MISG VIS MISG SLP142

Hora: 10:55 (13:55 UTC)


TAF: manca

Observacions i pronòstics meteorològics de més de 4000 aeroports (METAR i TAF).

Les estacions disponibles són els punts grocs i vermells al mapa.

Posi el ratolí al punt desitjat per veure el nom de l'estació.

Feu clic per veure les observacions i els pronòstics meteorològics.

Per canviar el mapa: feu clic els botons verds amb una creu de color negre per apropar; al botó verd amb un guió per allunyar la imatge; o en les fletxes verdes per a mapes adjacents.


METAR-TAF: